• Join FlightAware (Why Join?)
  • Login
  • US Flag 
07:34PM EDT


 

Airport Tracker/Info


-or-


 

Live Flight TrackerFlight Track Log ✈ LV-CSD ✈ 14-Jul-2013 ✈ SAEZ / EZE - KMIA

Flight Track Log - Related Links

Times and Time Zones

All times are in EDT time to prevent confusion due to time zone crossing. See the LV-CSD flight status page for this flight to view local times or setup timezone preferences in your user account.

Time Position Orientation Groundspeed Altitude Reporting Facility
EDT Latitude Longitude Course Direction KTS MPH feet Rate Location/Type
04:25PM -33.4404 -59.1907 338° Northwest  Level Estimated
04:26PM -33.3230 -59.2458 339° North  Level Estimated
04:27PM -33.2056 -59.3008 339° North  Level Estimated
04:28PM -33.0882 -59.3556 339° North  Level Estimated
04:29PM -32.9707 -59.4102 339° North  Level Estimated
04:30PM -32.8533 -59.4648 339° North  Level Estimated
04:31PM -32.7358 -59.5191 339° North  Level Estimated
04:32PM -32.6183 -59.5734 339° North  Level Estimated
04:33PM -32.5007 -59.6275 339° North  Level Estimated
04:34PM -32.3831 -59.6814 339° North  Level Estimated
04:35PM -32.2656 -59.7352 339° North  Level Estimated
04:36PM -32.1479 -59.7889 339° North  Level Estimated
04:37PM -32.0294 -59.8394 340° North  Level FlightAware Approximate
04:38PM -31.9108 -59.8898 340° North  Level FlightAware Approximate
04:39PM -31.7922 -59.9401 340° North  Level FlightAware Approximate
04:40PM -31.6735 -59.9902 340° North  Level FlightAware Approximate
04:41PM -31.5549 -60.0402 340° North  Level FlightAware Approximate
04:42PM -31.4362 -60.0901 340° North  Level FlightAware Approximate
04:43PM -31.3176 -60.1398 340° North  Level FlightAware Approximate
04:44PM -31.1989 -60.1894 340° North  Level FlightAware Approximate
04:45PM -31.0801 -60.2389 340° North  Level FlightAware Approximate
04:46PM -29.8774 -60.7332 340° North  Level FlightAware Approximate
04:47PM -28.6729 -61.2156 341° North  Level FlightAware Approximate
04:48PM -27.4667 -61.6870 341° North  Level FlightAware Approximate
04:49PM -26.2589 -62.1483 341° North  Level FlightAware Approximate
04:50PM -25.1148 -62.5759 341° North  Level FlightAware Approximate
04:51PM -23.9695 -62.9956 341° North  Level FlightAware Approximate
04:52PM -22.8231 -63.4080 342° North  Level FlightAware Approximate
04:53PM -21.6756 -63.8134 342° North  Level FlightAware Approximate
04:54PM -20.5271 -64.2124 342° North  Level FlightAware Approximate
04:55PM -19.4347 -64.5862 342° North  Level FlightAware Approximate
04:56PM -18.3414 -64.9549 342° North  Level FlightAware Approximate
04:57PM -17.2475 -65.3191 342° North  Level FlightAware Approximate
04:58PM -16.1529 -65.6789 342° North  Level FlightAware Approximate
04:59PM -14.9577 -66.0671 343° North  Level FlightAware Approximate
05:00PM -13.7619 -66.4510 343° North  Level FlightAware Approximate
05:01PM -12.5655 -66.8309 343° North  Level FlightAware Approximate
05:02PM -11.3686 -67.2074 343° North  Level FlightAware Approximate
05:03PM -10.1712 -67.5806 343° North  Level FlightAware Approximate
05:04PM -8.9734 -67.9511 343° North  Level FlightAware Approximate
05:05PM -7.7752 -68.3192 343° North  Level FlightAware Approximate
05:06PM -6.5767 -68.6852 343° North  Level FlightAware Approximate
05:07PM -5.3779 -69.0494 343° North  Level FlightAware Approximate
05:08PM -4.1789 -69.4121 343° North  Level FlightAware Approximate
05:09PM -2.9797 -69.7738 343° North  Level FlightAware Approximate
05:10PM -1.8562 -70.1119 343° North  Level FlightAware Approximate
05:11PM -0.7326 -70.4496 343° North  Level FlightAware Approximate
05:12PM 0.3910 -70.7871 343° North  Level FlightAware Approximate
05:13PM 1.5142 -71.1262 343° North  Level FlightAware Approximate
05:14PM 2.6368 -71.4671 343° North  Level FlightAware Approximate
05:15PM 3.7587 -71.8109 343° North  Level FlightAware Approximate
05:15PM 25.7890 -80.2810 343° North 15 17  Level FlightAware
05:16PM 25.7890 -80.2800 90° East 26 30  Level FlightAware
05:16PM 25.7890 -80.2790 90° East 29 33  Level FlightAware
05:16PM 25.7890 -80.2780 90° East 26 30  Level FlightAware
05:17PM 25.7890 -80.2760 90° East 25 29  Level FlightAware
05:17PM 25.7890 -80.2750 90° East 27 31  Level FlightAware
05:17PM 25.7900 -80.2750 360° North 24 28  Level FlightAware
05:18PM 25.7920 -80.2750 360° North 17 20  Level FlightAware
05:18PM 25.7920 -80.2740 90° East 13 15  Level FlightAware